sensor_id;sensor_type;location;lat;lon;timestamp;temperature;humidity
36292;DHT22;22327;51.208;6.418;2023-03-14T00:01:19;15.50;95.60
36292;DHT22;22327;51.208;6.418;2023-03-14T00:03:45;15.50;95.60
36292;DHT22;22327;51.208;6.418;2023-03-14T00:06:12;15.60;95.60
36292;DHT22;22327;51.208;6.418;2023-03-14T00:08:38;15.60;96.40
36292;DHT22;22327;51.208;6.418;2023-03-14T00:11:16;15.50;97.40
36292;DHT22;22327;51.208;6.418;2023-03-14T00:13:50;15.30;98.50
36292;DHT22;22327;51.208;6.418;2023-03-14T00:16:16;15.00;99.20
36292;DHT22;22327;51.208;6.418;2023-03-14T00:18:41;14.70;99.10
36292;DHT22;22327;51.208;6.418;2023-03-14T00:21:09;14.50;99.20
36292;DHT22;22327;51.208;6.418;2023-03-14T00:23:36;14.40;99.50
36292;DHT22;22327;51.208;6.418;2023-03-14T00:26:04;14.20;99.70
36292;DHT22;22327;51.208;6.418;2023-03-14T00:28:30;14.10;99.90
36292;DHT22;22327;51.208;6.418;2023-03-14T00:30:56;14.00;99.90
36292;DHT22;22327;51.208;6.418;2023-03-14T00:33:22;13.90;99.90
36292;DHT22;22327;51.208;6.418;2023-03-14T00:36:03;13.90;99.90
36292;DHT22;22327;51.208;6.418;2023-03-14T00:38:30;13.80;99.90
36292;DHT22;22327;51.208;6.418;2023-03-14T00:40:56;13.70;99.90
36292;DHT22;22327;51.208;6.418;2023-03-14T00:43:22;13.70;99.90
36292;DHT22;22327;51.208;6.418;2023-03-14T00:45:52;13.60;99.90
36292;DHT22;22327;51.208;6.418;2023-03-14T00:48:18;13.70;99.90
36292;DHT22;22327;51.208;6.418;2023-03-14T00:50:44;13.60;99.90
36292;DHT22;22327;51.208;6.418;2023-03-14T00:53:11;13.60;99.90
36292;DHT22;22327;51.208;6.418;2023-03-14T00:55:37;13.50;99.90
36292;DHT22;22327;51.208;6.418;2023-03-14T00:58:03;13.50;99.90
36292;DHT22;22327;51.208;6.418;2023-03-14T01:00:29;13.50;99.90
36292;DHT22;22327;51.208;6.418;2023-03-14T01:02:54;13.50;99.90
36292;DHT22;22327;51.208;6.418;2023-03-14T01:05:22;13.50;99.90
36292;DHT22;22327;51.208;6.418;2023-03-14T01:07:48;13.50;99.90
36292;DHT22;22327;51.208;6.418;2023-03-14T01:10:13;13.40;99.90
36292;DHT22;22327;51.208;6.418;2023-03-14T01:12:39;13.40;99.90
36292;DHT22;22327;51.208;6.418;2023-03-14T01:15:05;13.40;99.90
36292;DHT22;22327;51.208;6.418;2023-03-14T01:17:30;13.40;99.90
36292;DHT22;22327;51.208;6.418;2023-03-14T01:19:56;13.40;99.90
36292;DHT22;22327;51.208;6.418;2023-03-14T01:22:21;13.50;99.90
36292;DHT22;22327;51.208;6.418;2023-03-14T01:24:47;13.40;99.90
36292;DHT22;22327;51.208;6.418;2023-03-14T01:27:13;13.50;99.90
36292;DHT22;22327;51.208;6.418;2023-03-14T01:29:38;13.50;99.90
36292;DHT22;22327;51.208;6.418;2023-03-14T01:32:04;13.50;99.90
36292;DHT22;22327;51.208;6.418;2023-03-14T01:34:30;13.60;99.90
36292;DHT22;22327;51.208;6.418;2023-03-14T01:36:55;13.60;99.90
36292;DHT22;22327;51.208;6.418;2023-03-14T01:39:21;13.60;99.90
36292;DHT22;22327;51.208;6.418;2023-03-14T01:41:46;13.60;99.90
36292;DHT22;22327;51.208;6.418;2023-03-14T01:44:12;13.60;99.90
36292;DHT22;22327;51.208;6.418;2023-03-14T01:46:43;13.60;99.90
36292;DHT22;22327;51.208;6.418;2023-03-14T01:49:28;13.70;99.90
36292;DHT22;22327;51.208;6.418;2023-03-14T01:52:22;13.80;99.90
36292;DHT22;22327;51.208;6.418;2023-03-14T01:54:55;13.80;99.90
36292;DHT22;22327;51.208;6.418;2023-03-14T01:57:30;13.80;99.90
36292;DHT22;22327;51.208;6.418;2023-03-14T02:00:04;13.80;99.90
36292;DHT22;22327;51.208;6.418;2023-03-14T02:02:37;13.80;99.90
36292;DHT22;22327;51.208;6.418;2023-03-14T02:05:04;13.90;99.90
36292;DHT22;22327;51.208;6.418;2023-03-14T02:08:18;13.90;99.90
36292;DHT22;22327;51.208;6.418;2023-03-14T02:10:28;13.90;99.90
36292;DHT22;22327;51.208;6.418;2023-03-14T02:12:55;14.00;99.90
36292;DHT22;22327;51.208;6.418;2023-03-14T02:15:22;14.00;99.90
36292;DHT22;22327;51.208;6.418;2023-03-14T02:17:48;14.00;99.90
36292;DHT22;22327;51.208;6.418;2023-03-14T02:23:10;14.00;99.90
36292;DHT22;22327;51.208;6.418;2023-03-14T02:26:00;13.90;99.90
36292;DHT22;22327;51.208;6.418;2023-03-14T02:28:26;13.90;99.90
36292;DHT22;22327;51.208;6.418;2023-03-14T02:30:52;13.90;99.90
36292;DHT22;22327;51.208;6.418;2023-03-14T02:33:19;14.00;99.90
36292;DHT22;22327;51.208;6.418;2023-03-14T02:35:50;14.00;99.90
36292;DHT22;22327;51.208;6.418;2023-03-14T02:38:31;14.00;99.90
36292;DHT22;22327;51.208;6.418;2023-03-14T02:40:58;13.90;99.80
36292;DHT22;22327;51.208;6.418;2023-03-14T02:43:24;13.90;99.90
36292;DHT22;22327;51.208;6.418;2023-03-14T02:45:51;13.90;99.90
36292;DHT22;22327;51.208;6.418;2023-03-14T02:51:03;13.90;99.70
36292;DHT22;22327;51.208;6.418;2023-03-14T02:53:32;13.80;99.90
36292;DHT22;22327;51.208;6.418;2023-03-14T02:55:58;13.90;99.90
36292;DHT22;22327;51.208;6.418;2023-03-14T02:58:24;13.90;99.80
36292;DHT22;22327;51.208;6.418;2023-03-14T03:00:50;14.00;99.90
36292;DHT22;22327;51.208;6.418;2023-03-14T03:03:16;14.00;99.70
36292;DHT22;22327;51.208;6.418;2023-03-14T03:05:41;14.00;99.60
36292;DHT22;22327;51.208;6.418;2023-03-14T03:08:10;14.10;99.60
36292;DHT22;22327;51.208;6.418;2023-03-14T03:10:36;14.10;99.80
36292;DHT22;22327;51.208;6.418;2023-03-14T03:13:02;14.10;99.60
36292;DHT22;22327;51.208;6.418;2023-03-14T03:15:28;14.10;99.40
36292;DHT22;22327;51.208;6.418;2023-03-14T03:17:53;14.10;99.80
36292;DHT22;22327;51.208;6.418;2023-03-14T03:20:19;14.00;99.80
36292;DHT22;22327;51.208;6.418;2023-03-14T03:22:44;14.00;99.90
36292;DHT22;22327;51.208;6.418;2023-03-14T03:25:10;14.00;99.90
36292;DHT22;22327;51.208;6.418;2023-03-14T03:27:37;13.90;99.90
36292;DHT22;22327;51.208;6.418;2023-03-14T03:30:04;14.00;99.90
36292;DHT22;22327;51.208;6.418;2023-03-14T03:32:30;14.00;99.90
36292;DHT22;22327;51.208;6.418;2023-03-14T03:34:56;13.90;99.90
36292;DHT22;22327;51.208;6.418;2023-03-14T03:37:21;13.90;99.90
36292;DHT22;22327;51.208;6.418;2023-03-14T03:39:49;13.90;99.90
36292;DHT22;22327;51.208;6.418;2023-03-14T03:42:14;13.80;99.90
36292;DHT22;22327;51.208;6.418;2023-03-14T03:44:40;13.80;99.90
36292;DHT22;22327;51.208;6.418;2023-03-14T03:47:05;13.80;99.90
36292;DHT22;22327;51.208;6.418;2023-03-14T03:49:32;13.70;99.90
36292;DHT22;22327;51.208;6.418;2023-03-14T03:51:58;13.70;99.90
36292;DHT22;22327;51.208;6.418;2023-03-14T03:54:23;13.60;99.90
36292;DHT22;22327;51.208;6.418;2023-03-14T03:56:49;13.60;99.90
36292;DHT22;22327;51.208;6.418;2023-03-14T03:59:14;13.60;99.90
36292;DHT22;22327;51.208;6.418;2023-03-14T04:01:40;13.50;99.90
36292;DHT22;22327;51.208;6.418;2023-03-14T04:04:06;13.50;99.90
36292;DHT22;22327;51.208;6.418;2023-03-14T04:06:31;13.50;99.90
36292;DHT22;22327;51.208;6.418;2023-03-14T04:08:57;13.50;99.90
36292;DHT22;22327;51.208;6.418;2023-03-14T04:11:22;13.40;99.90
36292;DHT22;22327;51.208;6.418;2023-03-14T04:13:48;13.40;99.90
36292;DHT22;22327;51.208;6.418;2023-03-14T04:16:17;13.40;99.90
36292;DHT22;22327;51.208;6.418;2023-03-14T04:18:43;13.40;99.90
36292;DHT22;22327;51.208;6.418;2023-03-14T04:21:08;13.30;99.90
36292;DHT22;22327;51.208;6.418;2023-03-14T04:23:34;13.30;99.90
36292;DHT22;22327;51.208;6.418;2023-03-14T04:25:59;13.30;99.90
36292;DHT22;22327;51.208;6.418;2023-03-14T04:28:25;13.20;99.90
36292;DHT22;22327;51.208;6.418;2023-03-14T04:30:50;13.20;99.90
36292;DHT22;22327;51.208;6.418;2023-03-14T04:33:16;13.10;99.90
36292;DHT22;22327;51.208;6.418;2023-03-14T04:35:43;13.10;99.90
36292;DHT22;22327;51.208;6.418;2023-03-14T04:38:09;13.10;99.90
36292;DHT22;22327;51.208;6.418;2023-03-14T04:40:41;13.10;99.90
36292;DHT22;22327;51.208;6.418;2023-03-14T04:43:10;13.10;99.90
36292;DHT22;22327;51.208;6.418;2023-03-14T04:45:36;13.10;99.90
36292;DHT22;22327;51.208;6.418;2023-03-14T04:48:02;13.10;99.90
36292;DHT22;22327;51.208;6.418;2023-03-14T04:50:27;13.10;99.90
36292;DHT22;22327;51.208;6.418;2023-03-14T04:52:53;13.10;99.90
36292;DHT22;22327;51.208;6.418;2023-03-14T04:55:19;13.20;99.90
36292;DHT22;22327;51.208;6.418;2023-03-14T04:57:44;13.20;99.90
36292;DHT22;22327;51.208;6.418;2023-03-14T05:00:10;13.20;99.90
36292;DHT22;22327;51.208;6.418;2023-03-14T05:02:36;13.20;99.90
36292;DHT22;22327;51.208;6.418;2023-03-14T05:05:02;13.20;99.90
36292;DHT22;22327;51.208;6.418;2023-03-14T05:07:27;13.20;99.90
36292;DHT22;22327;51.208;6.418;2023-03-14T05:09:53;13.20;99.90
36292;DHT22;22327;51.208;6.418;2023-03-14T05:12:19;13.20;99.90
36292;DHT22;22327;51.208;6.418;2023-03-14T05:14:45;13.30;99.90
36292;DHT22;22327;51.208;6.418;2023-03-14T05:17:10;13.20;99.90
36292;DHT22;22327;51.208;6.418;2023-03-14T05:19:36;13.30;99.90
36292;DHT22;22327;51.208;6.418;2023-03-14T05:22:02;13.20;99.90
36292;DHT22;22327;51.208;6.418;2023-03-14T05:24:28;13.20;99.90
36292;DHT22;22327;51.208;6.418;2023-03-14T05:26:53;13.30;99.90
36292;DHT22;22327;51.208;6.418;2023-03-14T05:29:19;13.30;99.90
36292;DHT22;22327;51.208;6.418;2023-03-14T05:31:45;13.30;99.90
36292;DHT22;22327;51.208;6.418;2023-03-14T05:34:10;13.30;99.90
36292;DHT22;22327;51.208;6.418;2023-03-14T05:36:36;13.30;99.90
36292;DHT22;22327;51.208;6.418;2023-03-14T05:39:01;13.30;99.90
36292;DHT22;22327;51.208;6.418;2023-03-14T05:41:27;13.30;99.90
36292;DHT22;22327;51.208;6.418;2023-03-14T05:43:52;13.30;99.90
36292;DHT22;22327;51.208;6.418;2023-03-14T05:46:18;13.30;99.90
36292;DHT22;22327;51.208;6.418;2023-03-14T05:48:43;13.30;99.90
36292;DHT22;22327;51.208;6.418;2023-03-14T05:51:09;13.30;99.90
36292;DHT22;22327;51.208;6.418;2023-03-14T05:53:34;13.40;99.90
36292;DHT22;22327;51.208;6.418;2023-03-14T05:56:00;13.30;99.90
36292;DHT22;22327;51.208;6.418;2023-03-14T05:58:25;13.40;99.90
36292;DHT22;22327;51.208;6.418;2023-03-14T06:00:51;13.40;99.90
36292;DHT22;22327;51.208;6.418;2023-03-14T06:03:17;13.40;99.90
36292;DHT22;22327;51.208;6.418;2023-03-14T06:05:42;13.50;99.90
36292;DHT22;22327;51.208;6.418;2023-03-14T06:08:08;13.50;99.90
36292;DHT22;22327;51.208;6.418;2023-03-14T06:10:35;13.50;99.90
36292;DHT22;22327;51.208;6.418;2023-03-14T06:13:01;13.50;99.90
36292;DHT22;22327;51.208;6.418;2023-03-14T06:15:26;13.50;99.90
36292;DHT22;22327;51.208;6.418;2023-03-14T06:17:54;13.50;99.90
36292;DHT22;22327;51.208;6.418;2023-03-14T06:20:20;13.60;99.90
36292;DHT22;22327;51.208;6.418;2023-03-14T06:22:46;13.60;99.90
36292;DHT22;22327;51.208;6.418;2023-03-14T06:25:11;13.60;99.90
36292;DHT22;22327;51.208;6.418;2023-03-14T06:27:37;13.60;99.90
36292;DHT22;22327;51.208;6.418;2023-03-14T06:30:03;13.70;99.90
36292;DHT22;22327;51.208;6.418;2023-03-14T06:32:28;13.70;99.90
36292;DHT22;22327;51.208;6.418;2023-03-14T06:34:54;13.80;99.90
36292;DHT22;22327;51.208;6.418;2023-03-14T06:37:19;13.80;99.90
36292;DHT22;22327;51.208;6.418;2023-03-14T06:39:45;13.80;99.90
36292;DHT22;22327;51.208;6.418;2023-03-14T06:42:10;13.80;99.90
36292;DHT22;22327;51.208;6.418;2023-03-14T06:44:36;13.80;99.90
36292;DHT22;22327;51.208;6.418;2023-03-14T06:47:01;13.80;99.90
36292;DHT22;22327;51.208;6.418;2023-03-14T06:49:27;13.80;99.90
36292;DHT22;22327;51.208;6.418;2023-03-14T06:51:53;13.90;99.90
36292;DHT22;22327;51.208;6.418;2023-03-14T06:54:18;13.90;99.90
36292;DHT22;22327;51.208;6.418;2023-03-14T06:56:44;13.90;99.90
36292;DHT22;22327;51.208;6.418;2023-03-14T06:59:09;14.00;99.90
36292;DHT22;22327;51.208;6.418;2023-03-14T07:01:35;14.00;99.90
36292;DHT22;22327;51.208;6.418;2023-03-14T07:04:01;13.90;99.90
36292;DHT22;22327;51.208;6.418;2023-03-14T07:06:27;13.90;99.90
36292;DHT22;22327;51.208;6.418;2023-03-14T07:08:54;13.90;99.90
36292;DHT22;22327;51.208;6.418;2023-03-14T07:11:20;13.90;99.90
36292;DHT22;22327;51.208;6.418;2023-03-14T07:13:46;13.90;99.90
36292;DHT22;22327;51.208;6.418;2023-03-14T07:16:11;13.90;99.90
36292;DHT22;22327;51.208;6.418;2023-03-14T07:18:37;14.00;99.90
36292;DHT22;22327;51.208;6.418;2023-03-14T07:21:03;14.00;99.90
36292;DHT22;22327;51.208;6.418;2023-03-14T07:23:29;14.00;99.90
36292;DHT22;22327;51.208;6.418;2023-03-14T07:25:56;14.10;99.90
36292;DHT22;22327;51.208;6.418;2023-03-14T07:28:22;14.20;99.90
36292;DHT22;22327;51.208;6.418;2023-03-14T07:30:48;14.20;99.90
36292;DHT22;22327;51.208;6.418;2023-03-14T07:33:14;14.20;99.90
36292;DHT22;22327;51.208;6.418;2023-03-14T07:35:40;14.30;99.90
36292;DHT22;22327;51.208;6.418;2023-03-14T07:38:05;14.30;99.90
36292;DHT22;22327;51.208;6.418;2023-03-14T07:40:31;14.40;99.90
36292;DHT22;22327;51.208;6.418;2023-03-14T07:42:56;14.50;99.90
36292;DHT22;22327;51.208;6.418;2023-03-14T07:45:23;14.50;99.90
36292;DHT22;22327;51.208;6.418;2023-03-14T07:47:48;14.60;99.90
36292;DHT22;22327;51.208;6.418;2023-03-14T07:50:14;14.60;99.90
36292;DHT22;22327;51.208;6.418;2023-03-14T07:52:39;14.60;99.90
36292;DHT22;22327;51.208;6.418;2023-03-14T07:55:05;14.70;99.90
36292;DHT22;22327;51.208;6.418;2023-03-14T07:57:31;14.70;99.90
36292;DHT22;22327;51.208;6.418;2023-03-14T07:59:56;14.80;99.90
36292;DHT22;22327;51.208;6.418;2023-03-14T08:02:22;14.80;99.90
36292;DHT22;22327;51.208;6.418;2023-03-14T08:04:49;14.80;99.90
36292;DHT22;22327;51.208;6.418;2023-03-14T08:07:15;14.90;99.90
36292;DHT22;22327;51.208;6.418;2023-03-14T08:09:40;14.90;99.90
36292;DHT22;22327;51.208;6.418;2023-03-14T08:12:06;14.90;99.90
36292;DHT22;22327;51.208;6.418;2023-03-14T08:14:32;14.90;99.90
36292;DHT22;22327;51.208;6.418;2023-03-14T08:16:58;14.90;99.90
36292;DHT22;22327;51.208;6.418;2023-03-14T08:19:23;15.00;99.90
36292;DHT22;22327;51.208;6.418;2023-03-14T08:21:49;15.00;99.90
36292;DHT22;22327;51.208;6.418;2023-03-14T08:24:15;15.00;99.90
36292;DHT22;22327;51.208;6.418;2023-03-14T08:26:40;15.00;99.90
36292;DHT22;22327;51.208;6.418;2023-03-14T08:29:06;15.00;99.90
36292;DHT22;22327;51.208;6.418;2023-03-14T08:31:34;15.10;99.90
36292;DHT22;22327;51.208;6.418;2023-03-14T08:34:00;15.00;99.90
36292;DHT22;22327;51.208;6.418;2023-03-14T08:36:26;14.90;99.90
36292;DHT22;22327;51.208;6.418;2023-03-14T08:38:51;14.70;99.90
36292;DHT22;22327;51.208;6.418;2023-03-14T08:41:17;14.60;99.90
36292;DHT22;22327;51.208;6.418;2023-03-14T08:43:42;14.60;99.90
36292;DHT22;22327;51.208;6.418;2023-03-14T08:46:08;14.60;99.90
36292;DHT22;22327;51.208;6.418;2023-03-14T08:48:33;14.50;99.90
36292;DHT22;22327;51.208;6.418;2023-03-14T08:51:09;14.50;99.90
36292;DHT22;22327;51.208;6.418;2023-03-14T08:53:36;14.50;99.90
36292;DHT22;22327;51.208;6.418;2023-03-14T08:56:02;14.40;99.90
36292;DHT22;22327;51.208;6.418;2023-03-14T08:58:29;14.40;99.90
36292;DHT22;22327;51.208;6.418;2023-03-14T09:00:54;14.20;99.90
36292;DHT22;22327;51.208;6.418;2023-03-14T09:03:20;13.90;99.90
36292;DHT22;22327;51.208;6.418;2023-03-14T09:05:48;13.60;99.90
36292;DHT22;22327;51.208;6.418;2023-03-14T09:08:14;13.40;99.90
36292;DHT22;22327;51.208;6.418;2023-03-14T09:10:40;13.20;99.90
36292;DHT22;22327;51.208;6.418;2023-03-14T09:13:05;13.10;99.90
36292;DHT22;22327;51.208;6.418;2023-03-14T09:15:31;12.90;99.90
36292;DHT22;22327;51.208;6.418;2023-03-14T09:17:56;12.80;99.90
36292;DHT22;22327;51.208;6.418;2023-03-14T09:20:22;12.70;99.90
36292;DHT22;22327;51.208;6.418;2023-03-14T09:22:48;12.70;99.90
36292;DHT22;22327;51.208;6.418;2023-03-14T09:25:13;12.80;99.90
36292;DHT22;22327;51.208;6.418;2023-03-14T09:27:39;12.80;99.90
36292;DHT22;22327;51.208;6.418;2023-03-14T09:30:05;12.80;99.90
36292;DHT22;22327;51.208;6.418;2023-03-14T09:32:31;12.90;99.90
36292;DHT22;22327;51.208;6.418;2023-03-14T09:34:57;12.90;99.90
36292;DHT22;22327;51.208;6.418;2023-03-14T09:37:23;12.70;99.90
36292;DHT22;22327;51.208;6.418;2023-03-14T09:39:48;12.70;99.90
36292;DHT22;22327;51.208;6.418;2023-03-14T09:42:17;12.60;99.90
36292;DHT22;22327;51.208;6.418;2023-03-14T09:44:57;12.70;99.90
36292;DHT22;22327;51.208;6.418;2023-03-14T09:47:25;12.60;99.90
36292;DHT22;22327;51.208;6.418;2023-03-14T09:49:51;12.60;99.90
36292;DHT22;22327;51.208;6.418;2023-03-14T09:52:25;12.50;99.90
36292;DHT22;22327;51.208;6.418;2023-03-14T09:54:54;12.50;99.90
36292;DHT22;22327;51.208;6.418;2023-03-14T09:57:24;12.40;99.90
36292;DHT22;22327;51.208;6.418;2023-03-14T09:59:53;12.50;99.90
36292;DHT22;22327;51.208;6.418;2023-03-14T10:02:21;12.60;99.90
36292;DHT22;22327;51.208;6.418;2023-03-14T10:04:49;12.60;99.90
36292;DHT22;22327;51.208;6.418;2023-03-14T10:07:17;12.70;99.90
36292;DHT22;22327;51.208;6.418;2023-03-14T10:09:47;12.80;99.90
36292;DHT22;22327;51.208;6.418;2023-03-14T10:12:13;13.00;99.90
36292;DHT22;22327;51.208;6.418;2023-03-14T10:14:54;13.10;99.90
36292;DHT22;22327;51.208;6.418;2023-03-14T10:17:20;13.10;99.90
36292;DHT22;22327;51.208;6.418;2023-03-14T10:19:56;13.00;99.90
36292;DHT22;22327;51.208;6.418;2023-03-14T10:22:24;13.00;99.90
36292;DHT22;22327;51.208;6.418;2023-03-14T10:24:53;13.10;99.90
36292;DHT22;22327;51.208;6.418;2023-03-14T10:27:22;13.10;99.90
36292;DHT22;22327;51.208;6.418;2023-03-14T10:29:59;13.00;99.90
36292;DHT22;22327;51.208;6.418;2023-03-14T10:32:45;13.00;99.90
36292;DHT22;22327;51.208;6.418;2023-03-14T10:35:22;13.00;99.70
36292;DHT22;22327;51.208;6.418;2023-03-14T10:40:18;12.90;99.90
36292;DHT22;22327;51.208;6.418;2023-03-14T10:42:44;12.90;99.90
36292;DHT22;22327;51.208;6.418;2023-03-14T10:47:59;12.90;99.90
36292;DHT22;22327;51.208;6.418;2023-03-14T10:50:31;12.80;99.90
36292;DHT22;22327;51.208;6.418;2023-03-14T10:53:01;12.60;99.60
36292;DHT22;22327;51.208;6.418;2023-03-14T10:55:40;12.20;99.40
36292;DHT22;22327;51.208;6.418;2023-03-14T10:58:27;11.70;99.80
36292;DHT22;22327;51.208;6.418;2023-03-14T11:04:15;11.30;99.90
36292;DHT22;22327;51.208;6.418;2023-03-14T11:15:25;11.30;99.90
36292;DHT22;22327;51.208;6.418;2023-03-14T11:20:45;11.30;99.90
36292;DHT22;22327;51.208;6.418;2023-03-14T11:23:27;11.40;99.90
36292;DHT22;22327;51.208;6.418;2023-03-14T11:32:00;11.90;99.90
36292;DHT22;22327;51.208;6.418;2023-03-14T11:34:53;12.00;99.90
36292;DHT22;22327;51.208;6.418;2023-03-14T11:37:29;12.00;99.10
36292;DHT22;22327;51.208;6.418;2023-03-14T11:42:36;12.00;98.70
36292;DHT22;22327;51.208;6.418;2023-03-14T11:45:02;12.10;99.10
36292;DHT22;22327;51.208;6.418;2023-03-14T11:48:05;12.20;99.00
36292;DHT22;22327;51.208;6.418;2023-03-14T11:50:32;12.30;97.70
36292;DHT22;22327;51.208;6.418;2023-03-14T11:55:41;12.30;98.30
36292;DHT22;22327;51.208;6.418;2023-03-14T12:00:41;12.30;97.50
36292;DHT22;22327;51.208;6.418;2023-03-14T12:06:12;12.20;96.90
36292;DHT22;22327;51.208;6.418;2023-03-14T12:11:20;12.20;96.80
36292;DHT22;22327;51.208;6.418;2023-03-14T12:13:50;12.20;96.50
36292;DHT22;22327;51.208;6.418;2023-03-14T12:18:48;12.50;98.10
36292;DHT22;22327;51.208;6.418;2023-03-14T12:21:14;12.80;95.90
36292;DHT22;22327;51.208;6.418;2023-03-14T12:23:52;12.90;94.80
36292;DHT22;22327;51.208;6.418;2023-03-14T12:26:26;13.00;95.40
36292;DHT22;22327;51.208;6.418;2023-03-14T12:37:10;12.60;96.80
36292;DHT22;22327;51.208;6.418;2023-03-14T12:40:03;12.80;96.00
36292;DHT22;22327;51.208;6.418;2023-03-14T12:42:40;12.90;96.40
36292;DHT22;22327;51.208;6.418;2023-03-14T12:47:56;13.30;95.60
36292;DHT22;22327;51.208;6.418;2023-03-14T12:50:34;13.50;94.60
36292;DHT22;22327;51.208;6.418;2023-03-14T12:53:32;13.60;94.10
36292;DHT22;22327;51.208;6.418;2023-03-14T12:56:18;13.50;92.60
36292;DHT22;22327;51.208;6.418;2023-03-14T13:01:25;12.40;94.30
36292;DHT22;22327;51.208;6.418;2023-03-14T13:04:00;12.00;95.50
36292;DHT22;22327;51.208;6.418;2023-03-14T13:06:52;11.70;95.60
36292;DHT22;22327;51.208;6.418;2023-03-14T13:12:11;11.40;97.10
36292;DHT22;22327;51.208;6.418;2023-03-14T13:14:45;11.40;97.10
36292;DHT22;22327;51.208;6.418;2023-03-14T13:17:15;11.40;97.40
36292;DHT22;22327;51.208;6.418;2023-03-14T13:19:41;11.40;97.20
36292;DHT22;22327;51.208;6.418;2023-03-14T13:22:24;11.50;98.10
36292;DHT22;22327;51.208;6.418;2023-03-14T13:25:02;11.70;97.40
36292;DHT22;22327;51.208;6.418;2023-03-14T13:27:30;11.90;96.70
36292;DHT22;22327;51.208;6.418;2023-03-14T13:29:57;12.10;96.60
36292;DHT22;22327;51.208;6.418;2023-03-14T13:32:27;12.20;96.00
36292;DHT22;22327;51.208;6.418;2023-03-14T13:34:57;12.20;95.50
36292;DHT22;22327;51.208;6.418;2023-03-14T13:37:25;12.10;95.50
36292;DHT22;22327;51.208;6.418;2023-03-14T13:39:53;12.10;95.60
36292;DHT22;22327;51.208;6.418;2023-03-14T13:42:21;12.10;95.70
36292;DHT22;22327;51.208;6.418;2023-03-14T13:44:51;12.10;95.10
36292;DHT22;22327;51.208;6.418;2023-03-14T13:47:20;12.10;94.90
36292;DHT22;22327;51.208;6.418;2023-03-14T13:49:47;12.10;94.00
36292;DHT22;22327;51.208;6.418;2023-03-14T13:52:35;12.10;94.30
36292;DHT22;22327;51.208;6.418;2023-03-14T13:55:03;12.10;94.60
36292;DHT22;22327;51.208;6.418;2023-03-14T13:57:49;12.10;94.70
36292;DHT22;22327;51.208;6.418;2023-03-14T14:00:25;12.10;94.20
36292;DHT22;22327;51.208;6.418;2023-03-14T14:02:55;12.10;94.40
36292;DHT22;22327;51.208;6.418;2023-03-14T14:05:22;12.10;94.00
36292;DHT22;22327;51.208;6.418;2023-03-14T14:07:49;12.00;93.50
36292;DHT22;22327;51.208;6.418;2023-03-14T14:10:16;11.80;93.40
36292;DHT22;22327;51.208;6.418;2023-03-14T14:12:59;11.70;94.10
36292;DHT22;22327;51.208;6.418;2023-03-14T14:15:28;11.70;93.90
36292;DHT22;22327;51.208;6.418;2023-03-14T14:18:06;11.70;94.80
36292;DHT22;22327;51.208;6.418;2023-03-14T14:20:36;11.80;95.30
36292;DHT22;22327;51.208;6.418;2023-03-14T14:23:04;11.90;95.30
36292;DHT22;22327;51.208;6.418;2023-03-14T14:25:31;12.00;94.70
36292;DHT22;22327;51.208;6.418;2023-03-14T14:27:57;12.10;94.40
36292;DHT22;22327;51.208;6.418;2023-03-14T14:30:32;12.20;91.10
36292;DHT22;22327;51.208;6.418;2023-03-14T14:33:21;12.20;90.40
36292;DHT22;22327;51.208;6.418;2023-03-14T14:35:52;12.30;89.70
36292;DHT22;22327;51.208;6.418;2023-03-14T14:38:18;12.30;85.20
36292;DHT22;22327;51.208;6.418;2023-03-14T14:40:48;12.30;82.60
36292;DHT22;22327;51.208;6.418;2023-03-14T14:43:18;12.30;81.20
36292;DHT22;22327;51.208;6.418;2023-03-14T14:45:45;12.30;80.30
36292;DHT22;22327;51.208;6.418;2023-03-14T14:48:13;12.30;85.00
36292;DHT22;22327;51.208;6.418;2023-03-14T14:51:03;12.40;84.80
36292;DHT22;22327;51.208;6.418;2023-03-14T14:53:30;12.50;81.30
36292;DHT22;22327;51.208;6.418;2023-03-14T14:55:59;12.50;77.50
36292;DHT22;22327;51.208;6.418;2023-03-14T14:58:33;12.50;78.60
36292;DHT22;22327;51.208;6.418;2023-03-14T15:01:10;12.60;79.90
36292;DHT22;22327;51.208;6.418;2023-03-14T15:03:37;12.60;79.20
36292;DHT22;22327;51.208;6.418;2023-03-14T15:06:03;12.60;74.60
36292;DHT22;22327;51.208;6.418;2023-03-14T15:08:29;12.60;75.30
36292;DHT22;22327;51.208;6.418;2023-03-14T15:10:56;12.50;76.60
36292;DHT22;22327;51.208;6.418;2023-03-14T15:13:22;12.50;74.90
36292;DHT22;22327;51.208;6.418;2023-03-14T15:15:50;12.50;72.20
36292;DHT22;22327;51.208;6.418;2023-03-14T15:18:22;12.40;69.80
36292;DHT22;22327;51.208;6.418;2023-03-14T15:20:49;12.30;69.70
36292;DHT22;22327;51.208;6.418;2023-03-14T15:23:17;12.20;69.90
36292;DHT22;22327;51.208;6.418;2023-03-14T15:25:43;12.30;71.30
36292;DHT22;22327;51.208;6.418;2023-03-14T15:28:19;12.30;70.20
36292;DHT22;22327;51.208;6.418;2023-03-14T15:30:49;12.20;70.00
36292;DHT22;22327;51.208;6.418;2023-03-14T15:33:15;12.30;74.20
36292;DHT22;22327;51.208;6.418;2023-03-14T15:35:41;12.30;70.60
36292;DHT22;22327;51.208;6.418;2023-03-14T15:38:16;12.30;73.00
36292;DHT22;22327;51.208;6.418;2023-03-14T15:40:42;12.30;70.50
36292;DHT22;22327;51.208;6.418;2023-03-14T15:43:08;12.30;64.10
36292;DHT22;22327;51.208;6.418;2023-03-14T15:45:34;12.20;69.80
36292;DHT22;22327;51.208;6.418;2023-03-14T15:48:00;12.20;68.20
36292;DHT22;22327;51.208;6.418;2023-03-14T15:50:25;12.20;68.20
36292;DHT22;22327;51.208;6.418;2023-03-14T15:52:51;12.20;68.00
36292;DHT22;22327;51.208;6.418;2023-03-14T15:55:17;12.10;69.70
36292;DHT22;22327;51.208;6.418;2023-03-14T15:57:44;12.10;69.20
36292;DHT22;22327;51.208;6.418;2023-03-14T16:00:14;12.10;66.80
36292;DHT22;22327;51.208;6.418;2023-03-14T16:02:41;12.00;70.00
36292;DHT22;22327;51.208;6.418;2023-03-14T16:05:08;12.00;67.30
36292;DHT22;22327;51.208;6.418;2023-03-14T16:07:34;12.00;68.60
36292;DHT22;22327;51.208;6.418;2023-03-14T16:10:00;11.90;67.30
36292;DHT22;22327;51.208;6.418;2023-03-14T16:12:25;11.90;70.10
36292;DHT22;22327;51.208;6.418;2023-03-14T16:14:51;11.90;66.70
36292;DHT22;22327;51.208;6.418;2023-03-14T16:17:16;11.80;69.70
36292;DHT22;22327;51.208;6.418;2023-03-14T16:19:42;11.80;68.80
36292;DHT22;22327;51.208;6.418;2023-03-14T16:22:07;11.80;70.20
36292;DHT22;22327;51.208;6.418;2023-03-14T16:24:33;11.80;73.00
36292;DHT22;22327;51.208;6.418;2023-03-14T16:26:58;11.80;69.20
36292;DHT22;22327;51.208;6.418;2023-03-14T16:29:24;11.70;69.90
36292;DHT22;22327;51.208;6.418;2023-03-14T16:31:50;11.70;71.70
36292;DHT22;22327;51.208;6.418;2023-03-14T16:34:15;11.60;71.00
36292;DHT22;22327;51.208;6.418;2023-03-14T16:36:41;11.50;70.40
36292;DHT22;22327;51.208;6.418;2023-03-14T16:39:06;11.40;74.00
36292;DHT22;22327;51.208;6.418;2023-03-14T16:41:32;11.40;69.60